createdAt,value
2022-11-15T00:00:59.827Z,11.10
2022-11-15T00:03:47.673Z,11.10
2022-11-15T00:06:35.142Z,11.00
2022-11-15T00:09:22.316Z,11.10
2022-11-15T00:12:09.854Z,11.20
2022-11-15T00:14:57.217Z,11.30
2022-11-15T00:17:44.730Z,11.40
2022-11-15T00:20:32.456Z,11.40
2022-11-15T00:23:19.978Z,11.40
2022-11-15T00:26:08.446Z,11.40
2022-11-15T00:28:55.703Z,11.40
2022-11-15T00:31:43.156Z,11.50
2022-11-15T00:34:30.464Z,11.50
2022-11-15T00:37:17.879Z,11.60
2022-11-15T00:40:05.634Z,11.70
2022-11-15T00:42:52.937Z,11.80
2022-11-15T00:45:45.288Z,11.80
2022-11-15T00:48:33.657Z,11.90
2022-11-15T00:51:21.154Z,11.90
2022-11-15T00:54:09.212Z,11.90
2022-11-15T00:56:56.879Z,11.90
2022-11-15T00:59:44.058Z,11.80
2022-11-15T01:02:31.394Z,11.90
2022-11-15T01:05:18.911Z,11.90
2022-11-15T01:08:06.362Z,12.00
2022-11-15T01:10:53.638Z,12.00
2022-11-15T01:13:41.453Z,12.10
2022-11-15T01:16:28.953Z,12.00
2022-11-15T01:19:16.433Z,11.80
2022-11-15T01:22:03.549Z,11.80
2022-11-15T01:24:53.907Z,11.80
2022-11-15T01:27:41.196Z,11.70
2022-11-15T01:30:31.263Z,11.70
2022-11-15T01:33:18.526Z,11.60
2022-11-15T01:36:08.407Z,11.50
2022-11-15T01:38:57.217Z,11.40
2022-11-15T01:41:44.361Z,11.40
2022-11-15T01:44:43.745Z,11.40
2022-11-15T01:47:34.328Z,11.30
2022-11-15T01:50:24.286Z,11.20
2022-11-15T01:53:11.700Z,11.30
2022-11-15T01:55:59.532Z,11.40
2022-11-15T01:58:47.506Z,11.50
2022-11-15T02:01:36.222Z,11.50
2022-11-15T02:04:29.566Z,11.60
2022-11-15T02:07:22.474Z,11.70
2022-11-15T02:10:13.363Z,11.80
2022-11-15T02:13:02.232Z,11.80
2022-11-15T02:16:20.337Z,11.80
2022-11-15T02:19:16.418Z,11.80
2022-11-15T02:22:35.645Z,11.80
2022-11-15T02:25:55.007Z,11.80
2022-11-15T02:28:51.189Z,11.80
2022-11-15T02:31:57.968Z,11.80
2022-11-15T02:34:54.188Z,11.80
2022-11-15T02:38:02.866Z,11.80
2022-11-15T02:41:09.953Z,11.80
2022-11-15T02:44:06.634Z,11.90
2022-11-15T02:47:15.105Z,11.90
2022-11-15T02:50:11.703Z,11.90
2022-11-15T02:52:58.855Z,11.90
2022-11-15T02:55:49.351Z,12.00
2022-11-15T02:58:48.820Z,12.00
2022-11-15T03:01:41.883Z,12.00
2022-11-15T03:04:35.246Z,12.00
2022-11-15T03:07:37.888Z,11.80
2022-11-15T03:10:49.276Z,11.70
2022-11-15T03:13:39.776Z,11.50
2022-11-15T03:16:48.596Z,11.50
2022-11-15T03:19:41.322Z,11.50
2022-11-15T03:22:31.525Z,11.50
2022-11-15T03:25:22.150Z,11.50
2022-11-15T03:28:11.993Z,11.70
2022-11-15T03:31:00.048Z,11.80
2022-11-15T03:33:47.407Z,11.90
2022-11-15T03:36:36.303Z,12.00
2022-11-15T03:39:24.620Z,11.90
2022-11-15T03:42:34.546Z,11.80
2022-11-15T03:45:27.822Z,11.90
2022-11-15T03:48:26.783Z,12.10
2022-11-15T03:51:14.846Z,12.10
2022-11-15T03:54:06.991Z,12.00
2022-11-15T03:56:54.442Z,12.10
2022-11-15T03:59:41.758Z,12.20
2022-11-15T04:02:29.222Z,12.30
2022-11-15T04:05:16.805Z,12.40
2022-11-15T04:08:05.571Z,12.40
2022-11-15T04:10:53.899Z,12.50
2022-11-15T04:13:41.446Z,12.60
2022-11-15T04:16:28.930Z,12.50
2022-11-15T04:19:34.389Z,12.60
2022-11-15T04:22:29.605Z,12.60
2022-11-15T04:25:22.003Z,12.70
2022-11-15T04:28:05.826Z,12.70
2022-11-15T04:30:53.219Z,12.80
2022-11-15T04:33:40.448Z,12.80
2022-11-15T04:36:46.050Z,12.80
2022-11-15T04:39:33.692Z,12.70
2022-11-15T04:42:21.155Z,12.60
2022-11-15T04:45:08.908Z,12.60
2022-11-15T04:47:56.184Z,12.70
2022-11-15T04:50:43.429Z,12.70
2022-11-15T04:53:31.064Z,12.70
2022-11-15T04:56:18.620Z,12.80
2022-11-15T04:59:06.091Z,12.70
2022-11-15T05:01:53.096Z,12.70
2022-11-15T05:04:41.746Z,12.80
2022-11-15T05:07:29.187Z,12.80
2022-11-15T05:10:16.771Z,12.80
2022-11-15T05:13:04.166Z,12.90
2022-11-15T05:15:51.646Z,12.90
2022-11-15T05:18:40.812Z,12.90
2022-11-15T05:21:28.350Z,12.90
2022-11-15T05:24:15.673Z,13.00
2022-11-15T05:27:03.096Z,12.90
2022-11-15T05:29:50.623Z,12.90
2022-11-15T05:32:38.131Z,12.90
2022-11-15T05:35:34.551Z,12.90
2022-11-15T05:38:21.733Z,13.00
2022-11-15T05:41:09.275Z,13.00
2022-11-15T05:43:56.471Z,13.00
2022-11-15T05:46:45.115Z,12.80
2022-11-15T05:49:35.438Z,12.60
2022-11-15T05:52:25.777Z,12.50
2022-11-15T05:55:13.629Z,12.50
2022-11-15T05:58:02.418Z,12.60
2022-11-15T06:00:50.031Z,12.60
2022-11-15T06:03:37.395Z,12.60
2022-11-15T06:06:24.543Z,12.60
2022-11-15T06:09:12.110Z,12.60
2022-11-15T06:11:59.737Z,12.60
2022-11-15T06:14:46.935Z,12.70
2022-11-15T06:17:34.048Z,12.60
2022-11-15T06:20:21.410Z,12.60
2022-11-15T06:23:08.616Z,12.50
2022-11-15T06:25:55.715Z,12.50
2022-11-15T06:28:43.260Z,12.60
2022-11-15T06:31:30.606Z,12.50
2022-11-15T06:34:17.899Z,12.50
2022-11-15T06:37:05.405Z,12.50
2022-11-15T06:39:52.981Z,12.50
2022-11-15T06:42:40.390Z,12.60
2022-11-15T06:45:28.785Z,12.60
2022-11-15T06:48:16.517Z,12.60
2022-11-15T06:51:06.001Z,12.60
2022-11-15T06:53:53.314Z,12.60
2022-11-15T06:56:40.564Z,12.60
2022-11-15T06:59:28.041Z,12.50
2022-11-15T07:02:15.911Z,12.50
2022-11-15T07:05:03.164Z,12.40
2022-11-15T07:07:57.984Z,12.40
2022-11-15T07:10:45.098Z,12.40
2022-11-15T07:13:38.044Z,12.50
2022-11-15T07:16:25.438Z,12.60
2022-11-15T07:19:13.101Z,12.50
2022-11-15T07:22:00.582Z,12.30
2022-11-15T07:24:47.998Z,12.40
2022-11-15T07:27:35.502Z,12.50
2022-11-15T07:30:22.776Z,12.50
2022-11-15T07:33:09.899Z,12.50
2022-11-15T07:36:02.587Z,12.60
2022-11-15T07:38:49.764Z,12.60
2022-11-15T07:41:37.273Z,12.80
2022-11-15T07:44:24.524Z,12.90
2022-11-15T07:47:12.071Z,13.00
2022-11-15T07:49:59.322Z,12.80
2022-11-15T07:52:47.342Z,12.80
2022-11-15T07:55:34.268Z,12.80
2022-11-15T07:58:22.049Z,12.90
2022-11-15T08:01:11.548Z,13.00
2022-11-15T08:03:59.249Z,13.10
2022-11-15T08:06:47.029Z,13.20
2022-11-15T08:09:34.251Z,13.30
2022-11-15T08:12:21.570Z,13.40
2022-11-15T08:15:09.732Z,13.40
2022-11-15T08:18:02.487Z,13.30
2022-11-15T08:20:49.831Z,13.30
2022-11-15T08:23:37.715Z,13.10
2022-11-15T08:26:26.795Z,13.00
2022-11-15T08:29:13.972Z,13.10
2022-11-15T08:32:01.445Z,13.20
2022-11-15T08:34:48.269Z,13.20
2022-11-15T08:37:36.191Z,13.40
2022-11-15T08:40:24.364Z,13.60
2022-11-15T08:43:11.457Z,13.70
2022-11-15T08:46:00.200Z,13.80
2022-11-15T08:48:47.320Z,13.90
2022-11-15T08:51:34.285Z,13.90
2022-11-15T08:54:21.545Z,13.90
2022-11-15T08:57:10.475Z,13.70
2022-11-15T08:59:58.133Z,13.70
2022-11-15T09:02:45.498Z,13.80
2022-11-15T09:05:32.979Z,14.00
2022-11-15T09:08:46.051Z,14.20
2022-11-15T09:11:10.923Z,14.40
2022-11-15T09:13:58.301Z,14.50
2022-11-15T09:16:45.526Z,14.70
2022-11-15T09:19:32.461Z,14.60
2022-11-15T09:22:19.993Z,14.50
2022-11-15T09:25:10.952Z,14.60
2022-11-15T09:27:57.860Z,14.50
2022-11-15T09:30:44.986Z,14.40
2022-11-15T09:33:33.095Z,14.40
2022-11-15T09:36:20.402Z,14.30
2022-11-15T09:39:07.885Z,14.30
2022-11-15T09:42:20.706Z,14.20
2022-11-15T09:45:14.347Z,14.30
2022-11-15T09:48:13.860Z,14.50
2022-11-15T09:51:01.281Z,14.70
2022-11-15T09:56:49.852Z,15.20
2022-11-15T10:00:12.317Z,15.20
2022-11-15T10:03:00.334Z,15.10
2022-11-15T10:05:50.132Z,15.10
2022-11-15T10:08:58.973Z,15.20
2022-11-15T10:11:46.469Z,15.20
2022-11-15T10:14:34.135Z,15.20
2022-11-15T10:17:39.753Z,15.10
2022-11-15T10:20:30.059Z,15.00
2022-11-15T10:23:23.608Z,15.00
2022-11-15T10:26:14.480Z,15.10
2022-11-15T10:29:02.027Z,15.00
2022-11-15T10:31:50.386Z,15.00
2022-11-15T10:34:39.185Z,14.80
2022-11-15T10:37:31.807Z,14.70
2022-11-15T10:40:25.387Z,14.70
2022-11-15T10:43:16.217Z,14.60
2022-11-15T10:46:31.568Z,14.30
2022-11-15T10:48:55.173Z,14.30
2022-11-15T10:51:55.273Z,14.20
2022-11-15T10:54:48.584Z,14.40
2022-11-15T10:57:40.541Z,14.40
2022-11-15T11:00:33.749Z,14.50
2022-11-15T11:03:26.818Z,14.50
2022-11-15T11:06:19.277Z,14.60
2022-11-15T11:09:07.758Z,14.60
2022-11-15T11:11:55.720Z,14.90
2022-11-15T11:14:43.221Z,15.00
2022-11-15T11:17:39.797Z,15.20
2022-11-15T11:20:42.141Z,15.20
2022-11-15T11:23:35.352Z,15.40
2022-11-15T11:26:28.310Z,15.50
2022-11-15T11:29:27.076Z,15.50
2022-11-15T11:32:26.633Z,15.60
2022-11-15T11:35:23.063Z,15.70
2022-11-15T11:38:19.465Z,15.80
2022-11-15T11:41:26.234Z,16.00
2022-11-15T11:44:22.258Z,16.00
2022-11-15T11:47:19.577Z,15.70
2022-11-15T11:50:19.172Z,15.60
2022-11-15T11:53:09.384Z,15.60
2022-11-15T11:55:59.630Z,15.40
2022-11-15T11:58:49.785Z,15.50
2022-11-15T12:01:40.431Z,15.50
2022-11-15T12:04:33.823Z,15.60
2022-11-15T12:07:27.095Z,15.70
2022-11-15T12:10:26.098Z,15.80
2022-11-15T12:13:19.460Z,16.00
2022-11-15T12:16:16.202Z,16.00
2022-11-15T12:19:05.705Z,15.70
2022-11-15T12:21:59.191Z,15.70
2022-11-15T12:24:49.750Z,15.70
2022-11-15T12:27:45.700Z,15.60
2022-11-15T12:30:54.267Z,15.60
2022-11-15T12:33:47.301Z,15.70
2022-11-15T12:36:40.327Z,15.50
2022-11-15T12:39:53.192Z,15.40
2022-11-15T12:42:46.101Z,15.40
2022-11-15T12:45:36.413Z,15.40
2022-11-15T12:48:42.107Z,15.40
2022-11-15T12:51:51.826Z,15.50
2022-11-15T12:54:44.991Z,15.40
2022-11-15T12:57:35.601Z,15.10
2022-11-15T13:00:28.877Z,15.10
2022-11-15T13:03:22.194Z,15.10
2022-11-15T13:06:11.615Z,15.20
2022-11-15T13:08:58.815Z,15.20
2022-11-15T13:11:49.225Z,15.30
2022-11-15T13:14:48.503Z,15.30
2022-11-15T13:17:49.397Z,15.30
2022-11-15T13:20:36.958Z,15.10
2022-11-15T13:23:25.014Z,15.20
2022-11-15T13:26:21.196Z,15.30
2022-11-15T13:29:20.412Z,15.40
2022-11-15T13:32:10.854Z,15.50
2022-11-15T13:34:58.238Z,15.70
2022-11-15T13:37:45.637Z,15.80
2022-11-15T13:40:38.466Z,16.00
2022-11-15T13:43:31.321Z,16.00
2022-11-15T13:46:24.545Z,16.10
2022-11-15T13:49:12.378Z,16.20
2022-11-15T13:52:01.593Z,16.20
2022-11-15T13:54:52.154Z,16.20
2022-11-15T13:57:53.421Z,16.20
2022-11-15T14:00:48.160Z,16.30
2022-11-15T14:03:38.650Z,16.30
2022-11-15T14:06:28.695Z,16.40
2022-11-15T14:09:27.844Z,16.50
2022-11-15T14:12:33.089Z,16.40
2022-11-15T14:15:29.629Z,16.40
2022-11-15T14:18:20.143Z,16.30
2022-11-15T14:21:08.893Z,16.30
2022-11-15T14:24:17.117Z,16.30
2022-11-15T14:27:19.721Z,16.30
2022-11-15T14:30:07.900Z,16.30
2022-11-15T14:32:55.160Z,16.10
2022-11-15T14:35:42.683Z,16.00
2022-11-15T14:38:30.623Z,16.00
2022-11-15T14:41:27.159Z,15.90
2022-11-15T14:44:16.155Z,15.90
2022-11-15T14:47:03.554Z,16.00
2022-11-15T14:49:50.447Z,16.00
2022-11-15T14:52:37.449Z,15.90
2022-11-15T14:55:32.605Z,15.90
2022-11-15T15:00:54.226Z,15.70
2022-11-15T15:03:41.288Z,15.60
2022-11-15T15:06:28.747Z,15.60
2022-11-15T15:09:16.014Z,15.60
2022-11-15T15:12:09.290Z,15.60
2022-11-15T15:14:56.780Z,15.70
2022-11-15T15:17:44.065Z,15.70
2022-11-15T15:20:31.829Z,15.50
2022-11-15T15:23:26.467Z,15.50
2022-11-15T15:26:14.000Z,15.30
2022-11-15T15:29:01.575Z,15.20
2022-11-15T15:31:48.676Z,15.10
2022-11-15T15:34:36.100Z,15.10
2022-11-15T15:37:28.171Z,15.00
2022-11-15T15:40:18.624Z,14.90
2022-11-15T15:43:07.920Z,14.80
2022-11-15T15:45:55.078Z,14.80
2022-11-15T15:48:42.730Z,14.70
2022-11-15T15:51:29.896Z,14.50
2022-11-15T15:54:17.532Z,14.30
2022-11-15T15:57:04.795Z,14.30
2022-11-15T15:59:53.611Z,14.20
2022-11-15T16:02:41.674Z,14.20
2022-11-15T16:05:30.859Z,14.20
2022-11-15T16:08:23.131Z,14.20
2022-11-15T16:11:11.125Z,14.30
2022-11-15T16:13:58.560Z,14.30
2022-11-15T16:16:45.513Z,14.30
2022-11-15T16:19:33.373Z,14.10
2022-11-15T16:22:20.687Z,13.90
2022-11-15T16:25:08.108Z,13.80
2022-11-15T16:27:55.695Z,13.80
2022-11-15T16:30:43.258Z,13.90
2022-11-15T16:33:31.226Z,13.90
2022-11-15T16:36:29.950Z,13.90
2022-11-15T16:39:14.672Z,14.00
2022-11-15T16:42:03.374Z,13.90
2022-11-15T16:44:52.990Z,14.00
2022-11-15T16:47:40.288Z,14.00
2022-11-15T16:50:29.886Z,13.90
2022-11-15T16:53:17.322Z,13.70
2022-11-15T16:56:04.982Z,13.60
2022-11-15T16:58:54.782Z,13.60
2022-11-15T17:01:44.981Z,13.50
2022-11-15T17:04:33.805Z,13.50
2022-11-15T17:07:21.439Z,13.50
2022-11-15T17:10:12.444Z,13.50
2022-11-15T17:12:59.767Z,13.60
2022-11-15T17:15:47.343Z,13.60
2022-11-15T17:18:36.460Z,13.60
2022-11-15T17:21:24.030Z,13.40
2022-11-15T17:24:12.283Z,13.20
2022-11-15T17:27:00.055Z,13.10
2022-11-15T17:29:47.499Z,13.10
2022-11-15T17:32:38.469Z,13.20
2022-11-15T17:35:25.658Z,13.20
2022-11-15T17:38:14.217Z,13.10
2022-11-15T17:41:10.831Z,13.00
2022-11-15T17:43:59.912Z,13.00
2022-11-15T17:46:47.483Z,12.90
2022-11-15T17:49:36.546Z,12.90
2022-11-15T17:52:23.699Z,13.00
2022-11-15T17:55:11.304Z,13.10
2022-11-15T17:57:59.132Z,13.20
2022-11-15T18:00:48.532Z,13.30
2022-11-15T18:03:37.277Z,13.20
2022-11-15T18:06:25.357Z,13.10
2022-11-15T18:09:13.056Z,13.10
2022-11-15T18:12:00.206Z,13.10
2022-11-15T18:14:47.683Z,13.20
2022-11-15T18:17:34.925Z,13.20
2022-11-15T18:20:26.597Z,13.20
2022-11-15T18:23:11.692Z,13.20
2022-11-15T18:25:59.196Z,13.30
2022-11-15T18:28:48.782Z,13.30
2022-11-15T18:31:35.836Z,13.30
2022-11-15T18:34:25.722Z,13.30
2022-11-15T18:37:12.876Z,13.30
2022-11-15T18:40:00.448Z,13.30
2022-11-15T18:42:47.870Z,13.40
2022-11-15T18:45:36.089Z,13.50
2022-11-15T18:48:23.454Z,13.50
2022-11-15T18:51:12.633Z,13.50
2022-11-15T18:54:02.637Z,13.40
2022-11-15T18:56:50.406Z,13.30
2022-11-15T18:59:37.659Z,13.30
2022-11-15T19:02:25.054Z,13.20
2022-11-15T19:05:12.908Z,13.30
2022-11-15T19:08:00.344Z,13.40
2022-11-15T19:10:47.753Z,13.40
2022-11-15T19:13:35.571Z,13.30
2022-11-15T19:16:23.269Z,13.30
2022-11-15T19:19:16.572Z,13.30
2022-11-15T19:22:04.083Z,13.30
2022-11-15T19:24:52.944Z,13.30
2022-11-15T19:27:40.424Z,13.30
2022-11-15T19:30:27.734Z,13.20
2022-11-15T19:33:14.964Z,13.10
2022-11-15T19:36:13.664Z,13.10
2022-11-15T19:39:04.374Z,13.10
2022-11-15T19:41:51.562Z,13.10
2022-11-15T19:44:38.854Z,13.30
2022-11-15T19:47:26.822Z,13.40
2022-11-15T19:50:14.293Z,13.40
2022-11-15T19:53:01.364Z,13.30
2022-11-15T19:55:55.801Z,13.20
2022-11-15T19:58:43.791Z,13.30
2022-11-15T20:01:33.381Z,13.30
2022-11-15T20:04:21.151Z,13.30
2022-11-15T20:07:09.363Z,13.30
2022-11-15T20:09:56.925Z,13.30
2022-11-15T20:12:44.749Z,13.40
2022-11-15T20:15:32.033Z,13.40
2022-11-15T20:18:19.707Z,13.40
2022-11-15T20:21:07.934Z,13.30
2022-11-15T20:23:56.461Z,13.20
2022-11-15T20:26:43.753Z,13.30
2022-11-15T20:29:31.060Z,13.30
2022-11-15T20:32:18.776Z,13.20
2022-11-15T20:35:06.092Z,13.20
2022-11-15T20:37:54.012Z,13.20
2022-11-15T20:40:41.984Z,13.20
2022-11-15T20:43:29.831Z,13.10
2022-11-15T20:46:16.806Z,13.10
2022-11-15T20:49:04.331Z,13.00
2022-11-15T20:51:51.499Z,12.90
2022-11-15T20:54:38.976Z,13.00
2022-11-15T20:57:26.197Z,12.90
2022-11-15T21:00:13.744Z,13.00
2022-11-15T21:03:00.953Z,12.90
2022-11-15T21:05:48.315Z,12.90
2022-11-15T21:09:17.493Z,12.90
2022-11-15T21:12:14.179Z,12.80
2022-11-15T21:15:01.426Z,12.70
2022-11-15T21:17:48.686Z,12.70
2022-11-15T21:20:36.399Z,12.70
2022-11-15T21:23:23.501Z,12.80
2022-11-15T21:26:10.769Z,12.80
2022-11-15T21:28:57.946Z,12.90
2022-11-15T21:31:50.483Z,12.90
2022-11-15T21:34:38.212Z,12.90
2022-11-15T21:37:25.671Z,13.00
2022-11-15T21:40:13.500Z,13.10
2022-11-15T21:43:00.744Z,13.10
2022-11-15T21:46:02.138Z,13.10
2022-11-15T21:48:49.607Z,13.00
2022-11-15T21:51:37.326Z,13.20
2022-11-15T21:54:24.648Z,13.20
2022-11-15T21:57:12.113Z,13.10
2022-11-15T22:00:01.427Z,12.90
2022-11-15T22:02:49.030Z,12.80
2022-11-15T22:05:36.247Z,12.80
2022-11-15T22:08:24.336Z,12.80
2022-11-15T22:11:12.235Z,12.80
2022-11-15T22:14:00.457Z,12.90
2022-11-15T22:16:47.559Z,12.90
2022-11-15T22:19:34.742Z,12.90
2022-11-15T22:22:21.752Z,12.90
2022-11-15T22:25:09.301Z,12.80
2022-11-15T22:27:56.636Z,12.80
2022-11-15T22:30:46.302Z,12.90
2022-11-15T22:33:35.218Z,12.80
2022-11-15T22:36:23.812Z,12.80
2022-11-15T22:39:12.727Z,12.80
2022-11-15T22:42:00.335Z,12.80
2022-11-15T22:44:47.742Z,12.90
2022-11-15T22:47:35.002Z,12.80
2022-11-15T22:50:23.127Z,12.90
2022-11-15T22:53:10.510Z,13.00
2022-11-15T22:56:03.303Z,13.00
2022-11-15T22:58:50.492Z,12.90
2022-11-15T23:01:38.150Z,12.90
2022-11-15T23:04:25.520Z,12.90
2022-11-15T23:07:13.109Z,12.80
2022-11-15T23:10:18.719Z,12.80
2022-11-15T23:13:18.162Z,12.80
2022-11-15T23:16:28.382Z,12.80
2022-11-15T23:19:15.777Z,12.80
2022-11-15T23:22:20.987Z,12.80
2022-11-15T23:25:09.134Z,12.80
2022-11-15T23:27:56.423Z,12.80
2022-11-15T23:31:01.677Z,12.70
2022-11-15T23:33:57.970Z,12.80
2022-11-15T23:36:45.421Z,12.80
2022-11-15T23:39:32.878Z,12.80
2022-11-15T23:42:20.415Z,12.70
2022-11-15T23:45:08.530Z,12.80
2022-11-15T23:48:00.991Z,12.80
2022-11-15T23:50:45.929Z,12.90
2022-11-15T23:53:33.340Z,12.90
2022-11-15T23:56:22.566Z,12.80
2022-11-15T23:59:09.921Z,12.80
